Time;durP1;ratioP1;P1;durP2;ratioP2;P2;SDS_P1;SDS_P2;PMS_P1;PMS_P2;Temp;Humidity;BMP_temperature;BMP_pressure;BME280_temperature;BME280_humidity;BME280_pressure;Samples;Min_cycle;Max_cycle;Signal;HPM_P1;HPM_P2
2022/02/23 01:31:17;;;;;;;20.58;11.75;;;102.70;2227.20;;;;;;5766080;23;20438;-77
2022/02/23 01:40:41;;;;;;;18.75;7.32;;;;;;;;;;4903220;29;20077;-78
2022/02/23 01:46:30;;;;;;;11.77;5.33;;;;;;;;;;4865426;29;20029;-78
2022/02/23 01:48:57;;;;;;;13.18;5.63;;;;;;;;;;4863955;29;20089;-78
2022/02/23 01:51:24;;;;;;;12.23;5.68;;;;;;;;;;4862354;29;20042;-80
2022/02/23 01:54:18;;;;;;;15.20;5.30;;;;;;;;;;4864071;29;20022;-78
2022/02/23 01:56:47;;;;;;;12.65;4.78;;;;;;;;;;4861857;29;20038;-79
2022/02/23 01:59:17;;;;;;;12.75;5.07;;;;;;;;;;4860175;29;20109;-78
2022/02/23 02:01:47;;;;;;;11.10;4.18;;;;;;;;;;4858592;29;20037;-82
2022/02/23 02:04:15;;;;;;;9.00;4.00;;;77.00;2227.20;;;;;;4842519;29;20046;-81
2022/02/23 02:06:43;;;;;;;11.07;4.05;;;77.00;2227.20;;;;;;4856563;29;20529;-77
2022/02/23 02:09:10;;;;;;;8.93;5.27;;;76.90;2227.20;;;;;;4842133;29;20034;-78
2022/02/23 02:11:37;;;;;;;13.73;4.40;;;76.80;2227.20;;;;;;4878932;29;20513;-77
2022/02/23 02:14:06;;;;;;;11.73;4.10;;;76.90;2227.20;;;;;;4895229;29;20478;-77
2022/02/23 02:16:36;;;;;;;11.30;5.10;;;76.80;2227.20;;;;;;4878767;29;20041;-77
2022/02/23 02:19:04;;;;;;;11.07;4.70;;;76.90;2227.20;;;;;;4880792;29;20041;-81
2022/02/23 02:22:01;;;;;;;11.07;4.80;;;76.90;2227.20;;;;;;4892398;29;20109;-82
2022/02/23 02:24:30;;;;;;;10.33;4.77;;;76.90;2227.20;;;;;;4934079;29;20577;-77
2022/02/23 02:26:59;;;;;;;8.30;4.20;;;76.80;2227.20;;;;;;4916819;29;20426;-77
2022/02/23 02:29:26;;;;;;;11.40;4.70;;;52.10;2227.20;;;;;;4903292;29;20047;-77
2022/02/23 02:31:53;;;;;;;12.43;4.97;;;52.10;2227.20;;;;;;4925597;29;20051;-77
2022/02/23 02:34:22;;;;;;;10.67;4.20;;;52.00;2227.20;;;;;;4886398;29;20036;-77
2022/02/23 02:36:49;;;;;;;15.37;5.17;;;52.00;2227.20;;;;;;4887692;29;20013;-77
2022/02/23 02:39:21;;;;;;;12.03;5.50;;;51.90;2227.20;;;;;;4903528;29;20027;-78
2022/02/23 02:41:51;;;;;;;10.63;4.60;;;51.80;2227.20;;;;;;4935606;29;20351;-77
2022/02/23 02:44:19;;;;;;;9.40;4.70;;;77.20;2227.20;;;;;;4918815;29;20017;-83
2022/02/23 02:46:46;;;;;;;12.07;5.27;;;51.70;2227.20;;;;;;4920512;29;20517;-78
2022/02/23 02:49:15;;;;;;;11.17;5.30;;;52.00;2227.20;;;;;;4902928;29;20099;-77
2022/02/23 02:51:42;;;;;;;12.37;5.47;;;51.80;2227.20;;;;;;4917007;29;20088;-78
2022/02/23 02:54:11;;;;;;;14.10;5.23;;;52.00;2227.20;;;;;;4916811;29;20464;-77
2022/02/23 02:56:40;;;;;;;10.67;4.60;;;51.70;2227.20;;;;;;4919007;29;20083;-78
2022/02/23 02:59:10;;;;;;;13.67;5.23;;;76.80;2227.20;;;;;;4903372;29;20032;-83
2022/02/23 03:01:37;;;;;;;11.00;5.20;;;76.90;2227.20;;;;;;4932695;29;20392;-78
2022/02/23 03:04:07;;;;;;;11.70;5.70;;;77.00;2227.20;;;;;;4932578;29;20444;-77
2022/02/23 03:06:34;;;;;;;13.20;6.17;;;77.00;2227.20;;;;;;4900860;29;20426;-77
2022/02/23 03:09:04;;;;;;;15.73;6.53;;;;;;;;;;4920421;29;20460;-78
2022/02/23 03:11:31;;;;;;;13.40;4.87;;;;;;;;;;4920781;29;20059;-78
2022/02/23 03:13:59;;;;;;;14.23;6.57;;;;;;;;;;4904871;29;20017;-78
2022/02/23 03:16:27;;;;;;;13.90;5.93;;;;;;;;;;4936681;29;20051;-80
2022/02/23 03:18:54;;;;;;;15.57;5.77;;;;;;;;;;4919924;29;20401;-79
2022/02/23 03:21:23;;;;;;;14.97;6.57;;;;;;;;;;4935958;29;20406;-83
2022/02/23 03:23:51;;;;;;;11.50;5.10;;;;;;;;;;4919491;29;20369;-78
2022/02/23 03:26:18;;;;;;;11.83;4.83;;;;;;;;;;4936869;29;20016;-79
2022/02/23 03:28:46;;;;;;;11.83;4.77;;;;;;;;;;4919441;29;20418;-78
2022/02/23 03:31:13;;;;;;;11.87;4.63;;;;;;;;;;4919688;29;20055;-83
2022/02/23 03:33:45;;;;;;;8.07;4.33;;;;;;;;;;4938861;29;20397;-78
2022/02/23 03:36:12;;;;;;;12.93;5.40;;;;;;;;;;4923441;29;20036;-78
2022/02/23 03:38:40;;;;;;;12.10;4.63;;;;;;;;;;4939129;29;20373;-78
2022/02/23 03:41:17;;;;;;;15.93;4.80;;;;;;;;;;4956466;29;20050;-81
2022/02/23 03:43:43;;;;;;;11.63;4.93;;;;;;;;;;4939066;29;20456;-78
2022/02/23 03:46:12;;;;;;;12.63;4.83;;;;;;;;;;4938652;29;20056;-78
2022/02/23 03:48:40;;;;;;;18.17;5.13;;;;;;;;;;4923553;29;20054;-78
2022/02/23 03:51:07;;;;;;;13.30;4.33;;;;;;;;;;4938156;29;20483;-82
2022/02/23 03:53:34;;;;;;;11.17;4.27;;;;;;;;;;4922585;29;20031;-80
2022/02/23 03:56:03;;;;;;;10.10;4.37;;;;;;;;;;4939140;29;20042;-78
2022/02/23 04:18:13;;;;;;;23.47;10.20;;;;;;;;;;6216750;23;20028;-84
2022/02/23 04:40:56;;;;;;;17.60;6.50;;;102.50;2227.20;;;;;;6218802;23;20043;-83
2022/02/23 04:46:45;;;;;;;15.33;5.67;;;102.60;2227.20;;;;;;6216648;23;19996;-79
2022/02/23 04:49:15;;;;;;;16.50;6.23;;;102.60;2227.20;;;;;;6191388;23;19996;-78
2022/02/23 04:51:41;;;;;;;25.98;7.47;;;103.10;2227.20;;;;;;6191355;23;20036;-83
2022/02/23 04:54:10;;;;;;;23.75;7.80;;;102.60;2227.20;;;;;;6193540;23;19989;-82
2022/02/23 05:10:39;;;;;;;13.63;6.65;;;102.40;2227.20;;;;;;6308612;22;20018;-79
2022/02/23 05:13:17;;;;;;;13.70;5.63;;;77.70;2227.20;;;;;;6284346;22;20000;-79
2022/02/23 05:15:49;;;;;;;12.53;4.60;;;77.70;2227.20;;;;;;6254915;22;20050;-82
2022/02/23 05:18:18;;;;;;;;;;;77.70;2227.20;;;;;;6258634;22;20027;-81
2022/02/23 05:20:50;;;;;;;11.77;4.30;;;77.70;2227.20;;;;;;6283663;22;19910;-80
2022/02/23 05:26:44;;;;;;;11.40;5.03;;;77.70;2227.20;;;;;;6216255;23;20004;-81
2022/02/23 05:29:12;;;;;;;14.17;5.20;;;;;;;;;;6193174;23;20000;-79
2022/02/23 05:31:48;;;;;;;13.60;5.82;;;;;;;;;;6142553;23;19993;-80
2022/02/23 05:55:36;;;;;;;23.13;9.70;;;102.60;2227.20;;;;;;6269916;22;20245;31
2022/02/23 07:40:28;;;;;;;29.00;12.57;;;128.50;2252.80;;;;;;6219752;22;20145;31
2022/02/23 08:34:03;;;;;;;29.98;14.50;;;154.50;2252.80;;;;;;6312660;22;20026;-88
2022/02/23 08:36:30;;;;;;;29.38;13.73;;;;;;;;;;6303623;22;20416;-84
2022/02/23 08:38:57;;;;;;;29.45;13.52;;;;;;;;;;6339936;22;20315;-83
2022/02/23 08:41:24;;;;;;;67.82;33.90;;;;;;;;;;6339820;22;20346;-84
2022/02/23 08:43:51;;;;;;;23.05;12.25;;;;;;;;;;6312323;22;20425;-83
2022/02/23 08:46:17;;;;;;;25.15;13.10;;;231.00;1971.20;;;;;;6312161;22;20375;-80
2022/02/23 08:48:43;;;;;;;16.73;7.68;;;230.60;2048.00;;;;;;6339432;22;20312;-81
2022/02/23 08:51:09;;;;;;;18.98;8.20;;;205.60;2048.00;;;;;;6339713;22;20415;-82
2022/02/23 08:53:40;;;;;;;20.77;7.22;;;205.50;2099.20;;;;;;6311790;22;20442;-82
2022/02/23 08:56:14;;;;;;;15.70;8.02;;;205.40;2124.80;;;;;;6312058;22;20403;-83
2022/02/23 08:58:40;;;;;;;13.52;6.18;;;205.60;2099.20;;;;;;6312436;22;20047;-86
2022/02/23 09:01:07;;;;;;;19.25;8.93;;;205.70;2073.60;;;;;;6312056;22;20327;-86
2022/02/23 09:03:44;;;;;;;13.50;6.20;;;205.70;2073.60;;;;;;6312370;22;19994;-86
2022/02/23 09:06:11;;;;;;;20.58;7.38;;;205.70;2073.60;;;;;;6312722;22;19999;-85
2022/02/23 09:08:38;;;;;;;19.65;9.02;;;230.50;2022.40;;;;;;6314157;22;20314;-85
2022/02/23 09:11:05;;;;;;;18.13;6.05;;;230.70;2022.40;;;;;;6341507;22;20311;-86
2022/02/23 09:13:31;;;;;;;14.88;5.88;;;230.80;1971.20;;;;;;6314265;22;20316;-86
2022/02/23 09:15:58;;;;;;;19.75;7.60;;;230.80;1971.20;;;;;;6314256;22;20438;-86
2022/02/23 09:18:24;;;;;;;15.20;7.05;;;231.00;1971.20;;;;;;6314372;22;20320;-85
2022/02/23 09:20:50;;;;;;;15.43;7.05;;;231.20;1971.20;;;;;;6313704;22;20006;-85
2022/02/23 09:23:16;;;;;;;17.15;8.45;;;256.30;1945.60;;;;;;6313984;22;20404;-84
2022/02/23 09:25:47;;;;;;;15.88;6.05;;;;;;;;;;6313721;22;20320;-83
2022/02/23 09:28:17;;;;;;;20.30;8.63;;;282.30;1792.00;;;;;;6311937;22;20336;-82
2022/02/23 09:30:43;;;;;;;22.90;11.50;;;282.40;1792.00;;;;;;6341438;22;19998;-82
2022/02/23 09:33:09;;;;;;;50.88;31.20;;;281.90;1792.00;;;;;;6314019;22;20341;-83
2022/02/23 09:35:35;;;;;;;37.08;23.33;;;281.80;1817.60;;;;;;6340881;22;20419;-87
2022/02/23 09:38:02;;;;;;;16.50;9.13;;;281.70;1868.80;;;;;;6313713;22;20430;-86
2022/02/23 09:40:28;;;;;;;15.23;7.05;;;281.70;1843.20;;;;;;6313741;22;20301;-87
2022/02/23 09:42:54;;;;;;;12.55;5.55;;;282.00;1792.00;;;;;;6314142;22;20465;-90
2022/02/23 09:45:20;;;;;;;136.48;77.43;;;281.70;1817.60;;;;;;6314089;22;19994;-89
2022/02/23 09:47:47;;;;;;;12.13;5.47;;;281.80;1740.80;;;;;;6341270;22;20308;-83
2022/02/23 09:50:20;;;;;;;12.40;4.55;;;281.80;1689.60;;;;;;6313992;22;20353;-84
2022/02/23 09:52:50;;;;;;;15.77;6.57;;;256.80;1587.20;;;;;;6314180;22;20311;-84
2022/02/23 09:55:17;;;;;;;29.63;18.67;;;256.80;1587.20;;;;;;6314015;22;20338;-89
2022/02/23 09:57:44;;;;;;;17.88;11.15;;;256.70;1612.80;;;;;;6313877;22;20296;-90
2022/02/23 10:00:11;;;;;;;16.45;8.23;;;256.70;1612.80;;;;;;6313982;22;20335;-89
2022/02/23 10:02:38;;;;;;;29.08;23.20;;;256.60;1664.00;;;;;;6313772;22;20379;-89
2022/02/23 10:05:06;;;;;;;15.30;7.05;;;256.30;1664.00;;;;;;6313993;22;20320;-83
2022/02/23 10:07:38;;;;;;;13.80;7.32;;;256.40;1689.60;;;;;;6313920;22;20423;-90
2022/02/23 10:10:08;;;;;;;14.40;6.70;;;256.30;1715.20;;;;;;6314499;22;20473;-92
2022/02/23 10:12:36;;;;;;;15.80;8.48;;;256.60;1689.60;;;;;;6314449;22;20002;-90
2022/02/23 10:15:11;;;;;;;17.17;6.80;;;256.60;1664.00;;;;;;6314385;22;20338;-87
2022/02/23 10:17:47;;;;;;;24.60;21.52;;;256.50;1689.60;;;;;;6341511;22;20412;-87
2022/02/23 10:20:21;;;;;;;36.75;28.83;;;256.20;1740.80;;;;;;6313533;22;20331;-89
2022/02/23 10:22:48;;;;;;;12.57;6.03;;;256.00;1766.40;;;;;;6313716;22;20320;-89
2022/02/23 10:25:24;;;;;;;10.70;4.53;;;231.20;1792.00;;;;;;6313185;22;20027;-88
2022/02/23 10:27:51;;;;;;;14.38;4.63;;;231.10;1843.20;;;;;;6314435;22;20457;-87
2022/02/23 10:30:29;;;;;;;9.65;4.55;;;231.10;1843.20;;;;;;6313630;22;20412;-86
2022/02/23 10:32:57;;;;;;;15.85;4.53;;;231.00;1894.40;;;;;;6314596;22;20288;-91
2022/02/23 10:35:28;;;;;;;17.83;7.20;;;231.00;1920.00;;;;;;6340752;22;20365;-89
2022/02/23 10:37:55;;;;;;;12.02;5.50;;;231.00;1945.60;;;;;;6313486;22;20289;-92
2022/02/23 10:40:23;;;;;;;8.60;4.40;;;231.00;1971.20;;;;;;6340849;22;20293;-91
2022/02/23 10:46:15;;;;;;;14.80;6.25;;;230.80;1996.80;;;;;;6341428;22;20094;-89
2022/02/23 10:49:02;;;;;;;16.77;7.20;;;230.90;2022.40;;;;;;6313697;22;20411;-90
2022/02/23 10:51:32;;;;;;;16.58;10.50;;;230.90;2022.40;;;;;;6313385;22;20296;-89
2022/02/23 10:54:13;;;;;;;19.55;6.20;;;231.00;2048.00;;;;;;6313132;22;20365;-89
2022/02/23 10:56:44;;;;;;;34.00;17.65;;;231.00;2048.00;;;;;;6313046;22;20350;-84
2022/02/23 10:59:17;;;;;;;20.17;8.38;;;231.10;2022.40;;;;;;6312975;22;20434;-86
2022/02/23 11:01:46;;;;;;;25.73;14.65;;;231.20;1996.80;;;;;;6283272;22;20300;-87
2022/02/23 11:04:12;;;;;;;20.48;7.13;;;231.30;1971.20;;;;;;6282491;22;20304;-88
2022/02/23 11:06:39;;;;;;;9.18;3.78;;;256.00;1920.00;;;;;;6282252;22;20320;-88
2022/02/23 11:09:07;;;;;;;10.55;5.13;;;231.30;1945.60;;;;;;6282099;22;20324;-90
2022/02/23 11:11:34;;;;;;;11.48;4.32;;;231.30;1945.60;;;;;;6309521;22;20015;-88
2022/02/23 11:14:01;;;;;;;13.98;7.82;;;256.00;1920.00;;;;;;6309419;22;20290;-83
2022/02/23 11:16:31;;;;;;;14.40;5.57;;;256.00;1971.20;;;;;;6309762;22;20010;-88
2022/02/23 11:18:59;;;;;;;11.25;4.45;;;231.30;1945.60;;;;;;6281960;22;19996;-88
2022/02/23 11:21:29;;;;;;;12.75;4.68;;;231.30;1920.00;;;;;;6282067;22;20436;-88
2022/02/23 11:24:00;;;;;;;14.23;3.88;;;256.00;1894.40;;;;;;6281975;22;20286;-90
2022/02/23 11:26:35;;;;;;;11.48;5.72;;;256.10;1868.80;;;;;;6282196;22;20358;-89
2022/02/23 11:29:14;;;;;;;12.43;4.78;;;256.20;1894.40;;;;;;6309478;22;20346;-87
2022/02/23 11:31:40;;;;;;;24.27;4.45;;;256.50;1894.40;;;;;;6281929;22;19999;-80
2022/02/23 11:34:08;;;;;;;10.50;4.15;;;256.80;1792.00;;;;;;6281123;22;20290;-82
2022/02/23 11:36:42;;;;;;;11.93;3.50;;;281.70;1766.40;;;;;;6281961;22;20282;-81
2022/02/23 11:39:12;;;;;;;;;;;282.00;1715.20;;;;;;6282079;22;20423;-87
2022/02/23 11:41:41;;;;;;;13.80;3.92;;;281.90;1740.80;;;;;;6309020;22;20201;-86
2022/02/23 11:44:19;;;;;;;10.65;4.18;;;281.80;1740.80;;;;;;6281754;22;20312;-86
2022/02/23 11:46:51;;;;;;;16.67;4.97;;;282.00;1715.20;;;;;;6281574;22;20420;-78
2022/02/23 11:49:21;;;;;;;13.43;4.40;;;282.10;1689.60;;;;;;6308935;22;20335;-87
2022/02/23 11:51:48;;;;;;;8.98;3.60;;;282.40;1664.00;;;;;;6282812;22;20288;-87
2022/02/23 11:54:36;;;;;;;15.73;5.35;;;282.40;1638.40;;;;;;6281654;22;19995;-90
2022/02/23 11:57:03;;;;;;;15.90;5.00;;;307.40;1638.40;;;;;;6308481;22;20048;-88
2022/02/23 11:59:46;;;;;;;9.27;3.95;;;307.30;1664.00;;;;;;6308788;22;20308;-87
2022/02/23 12:02:14;;;;;;;7.30;3.75;;;307.50;1612.80;;;;;;6281714;22;20416;-89
2022/02/23 12:04:51;;;;;;;12.68;3.30;;;307.40;1638.40;;;;;;6308794;22;20300;-86
2022/02/23 12:07:19;;;;;;;14.80;3.85;;;307.90;1561.60;;;;;;6281461;22;20439;-89
2022/02/23 12:09:52;;;;;;;13.50;4.72;;;307.70;1587.20;;;;;;6281602;22;20412;-86
2022/02/23 12:12:46;;;;;;;13.98;4.85;;;307.50;1587.20;;;;;;6282946;22;20384;-87
2022/02/23 12:15:26;;;;;;;6.70;3.33;;;307.60;1612.80;;;;;;6281846;22;20387;-88
2022/02/23 12:18:13;;;;;;;11.27;4.45;;;308.00;1536.00;;;;;;6308689;22;20458;-82
2022/02/23 12:20:42;;;;;;;8.95;3.33;;;;;;;;;;6281595;22;20421;-86
2022/02/23 12:23:10;;;;;;;12.90;3.70;;;;;;;;;;6281430;22;19999;-82
2022/02/23 12:25:52;;;;;;;13.15;3.63;;;384.30;1331.20;;;;;;6308490;22;20312;-82
2022/02/23 12:28:23;;;;;;;12.93;6.03;;;;;;;;;;6281047;22;20328;-83
2022/02/23 12:31:01;;;;;;;9.80;4.65;;;;;;;;;;6280758;22;20411;-81
2022/02/23 12:33:28;;;;;;;11.35;4.13;;;436.00;1203.20;;;;;;6307938;22;20293;-79
2022/02/23 12:35:55;;;;;;;9.55;3.80;;;461.30;1126.40;;;;;;6221228;22;20303;-80
2022/02/23 12:38:32;;;;;;;13.15;3.30;;;487.20;1049.60;;;;;;6219584;23;20302;-80
2022/02/23 12:41:00;;;;;;;11.25;4.70;;;563.40;998.40;;;;;;6246884;23;20290;-81
2022/02/23 12:43:28;;;;;;;8.40;3.88;;;563.80;947.20;;;;;;6221526;23;20346;-80
2022/02/23 12:46:11;;;;;;;8.60;4.40;;;486.40;1126.40;;;;;;6248734;23;20351;-79
2022/02/23 12:48:44;;;;;;;10.18;3.38;;;486.40;1100.80;;;;;;6220109;23;20305;-77
2022/02/23 12:51:11;;;;;;;12.40;3.50;;;461.10;1100.80;;;;;;6221664;23;20430;-77
2022/02/23 12:53:42;;;;;;;8.77;3.22;;;435.70;1177.60;;;;;;6247035;23;20317;-77
2022/02/23 12:56:30;;;;;;;10.40;4.30;;;461.20;1126.40;;;;;;6248406;23;20297;-77
2022/02/23 12:58:57;;;;;;;9.38;3.38;;;487.20;1024.00;;;;;;6248260;23;20321;-78
2022/02/23 13:01:31;;;;;;;6.80;3.10;;;486.50;1075.20;;;;;;6221127;23;20012;-81
2022/02/23 13:04:02;;;;;;;9.40;3.53;;;461.00;1126.40;;;;;;6221438;23;20000;-79
2022/02/23 13:06:43;;;;;;;7.05;3.00;;;461.40;1126.40;;;;;;6221584;23;20328;-82
2022/02/23 13:09:22;;;;;;;11.82;4.78;;;537.70;998.40;;;;;;6248429;23;20433;-81
2022/02/23 13:11:51;;;;;;;7.60;3.88;;;614.70;844.80;;;;;;6221456;23;20436;-80
2022/02/23 13:14:24;;;;;;;8.27;4.05;;;563.50;921.60;;;;;;6248506;23;20322;-81
2022/02/23 13:16:55;;;;;;;;;;;563.50;998.40;;;;;;6217835;23;20311;-80
2022/02/23 13:19:34;;;;;;;5.75;2.72;;;563.30;947.20;;;;;;6221153;23;20193;-82
2022/02/23 13:22:11;;;;;;;5.95;2.92;;;512.80;921.60;;;;;;6248273;23;20312;-80
2022/02/23 13:24:41;;;;;;;6.72;3.40;;;460.80;1100.80;;;;;;6221236;23;20004;-80
2022/02/23 13:27:08;;;;;;;4.43;2.88;;;588.90;1024.00;;;;;;6221407;23;20358;-80
2022/02/23 13:29:35;;;;;;;6.50;3.47;;;;;;;;;;6220925;23;20294;-78
2022/02/23 13:32:04;;;;;;;4.35;2.33;;;666.00;793.60;;;;;;6221032;23;20317;-78
2022/02/23 13:34:31;;;;;;;6.82;2.83;;;;;;;;;;6233360;22;20305;-78
2022/02/23 13:37:08;;;;;;;13.43;6.72;;;768.00;742.40;;;;;;6251430;22;20456;-79
2022/02/23 13:40:01;;;;;;;16.85;7.18;;;768.60;716.80;;;;;;6278536;22;20305;-79
2022/02/23 13:42:33;;;;;;;11.35;5.32;;;819.70;716.80;;;;;;6278638;22;20344;-79
2022/02/23 13:45:13;;;;;;;10.10;4.28;;;794.30;665.60;;;;;;6278834;22;20338;-80
2022/02/23 13:47:43;;;;;;;108.00;44.90;;;794.50;665.60;;;;;;6251095;22;20312;-80
2022/02/23 13:50:24;;;;;;;41.05;29.02;;;768.20;691.20;;;;;;6278465;22;20325;-80
2022/02/23 13:52:58;;;;;;;13.30;6.95;;;819.50;614.40;;;;;;6251145;22;20439;-79
2022/02/23 13:55:27;;;;;;;6.90;3.50;;;845.30;614.40;;;;;;6278719;22;20304;-77
2022/02/23 13:57:59;;;;;;;8.50;3.40;;;844.90;614.40;;;;;;6251301;22;20290;-77
2022/02/23 14:00:48;;;;;;;13.57;7.57;;;845.40;588.80;;;;;;6278612;22;20317;-77
2022/02/23 14:03:18;;;;;;;8.65;3.80;;;845.50;563.20;;;;;;6252031;22;20286;-77
2022/02/23 14:05:57;;;;;;;11.38;5.43;;;870.50;563.20;;;;;;6278299;22;20309;-78
2022/02/23 14:08:44;;;;;;;10.57;5.93;;;820.00;614.40;;;;;;6251056;22;20309;-79
2022/02/23 14:11:19;;;;;;;15.57;3.72;;;896.40;537.60;;;;;;6278117;22;20412;-77
2022/02/23 14:13:54;;;;;;;10.35;3.85;;;845.40;588.80;;;;;;6251113;22;20417;-79
2022/02/23 14:16:41;;;;;;;9.93;2.92;;;845.20;588.80;;;;;;6251160;22;20312;-77
2022/02/23 14:19:19;;;;;;;6.32;3.33;;;844.80;588.80;;;;;;6251124;22;20308;-78
2022/02/23 14:21:51;;;;;;;14.50;4.95;;;819.70;588.80;;;;;;6278597;22;20316;-79
2022/02/23 14:24:31;;;;;;;6.82;2.17;;;845.30;563.20;;;;;;6278111;22;20321;-78
2022/02/23 14:27:02;;;;;;;10.40;4.55;;;794.10;640.00;;;;;;6278430;22;20348;-81
2022/02/23 14:29:34;;;;;;;9.73;3.70;;;717.40;665.60;;;;;;6251082;22;20371;-77
2022/02/23 14:32:01;;;;;;;10.82;4.35;;;614.90;768.00;;;;;;6250974;22;20432;-80
2022/02/23 14:34:29;;;;;;;13.10;4.30;;;512.70;896.00;;;;;;6251603;22;20495;-85
2022/02/23 14:36:57;;;;;;;11.18;5.82;;;460.80;1075.20;;;;;;6251030;22;20291;-80
2022/02/23 14:39:25;;;;;;;16.48;6.45;;;410.20;1126.40;;;;;;6278444;22;20415;-82
2022/02/23 14:41:53;;;;;;;11.23;2.38;;;409.60;1126.40;;;;;;6277960;22;20305;-78
2022/02/23 14:44:20;;;;;;;10.45;2.70;;;384.80;1126.40;;;;;;6278143;22;20364;-83
2022/02/23 14:46:46;;;;;;;12.57;3.60;;;;;;;;;;6250951;22;20392;-78
2022/02/23 14:49:13;;;;;;;11.05;3.97;;;384.70;1152.00;;;;;;6250642;22;20440;-81
2022/02/23 14:51:39;;;;;;;8.95;3.22;;;384.20;1152.00;;;;;;6250720;22;20413;-77
2022/02/23 14:54:05;;;;;;;9.35;2.38;;;384.00;1152.00;;;;;;6251457;22;20301;-78
2022/02/23 14:56:33;;;;;;;13.77;4.70;;;359.10;1177.60;;;;;;6250832;22;20321;-82
2022/02/23 14:59:00;;;;;;;108.32;38.47;;;358.80;1254.40;;;;;;6278024;22;20309;-78
2022/02/23 15:01:27;;;;;;;14.70;6.07;;;358.70;1228.80;;;;;;6250669;22;20321;-77
2022/02/23 15:03:54;;;;;;;11.57;4.47;;;358.70;1228.80;;;;;;6250627;22;20470;-81
2022/02/23 15:06:20;;;;;;;21.42;7.57;;;358.60;1254.40;;;;;;6250841;22;20427;-81
2022/02/23 15:08:46;;;;;;;11.43;4.20;;;358.50;1254.40;;;;;;6250718;22;20427;-81
2022/02/23 15:11:13;;;;;;;9.63;2.97;;;333.60;1484.80;;;;;;6250640;22;20412;-80
2022/02/23 15:13:39;;;;;;;10.45;3.28;;;333.50;1280.00;;;;;;6250674;22;20417;-81
2022/02/23 15:16:09;;;;;;;14.48;4.75;;;333.40;1305.60;;;;;;6277713;22;19988;-77
2022/02/23 15:18:36;;;;;;;9.93;3.83;;;333.40;1305.60;;;;;;6250715;22;20449;-79
2022/02/23 15:21:03;;;;;;;7.40;2.55;;;333.20;1664.00;;;;;;6250395;22;20352;-77
2022/02/23 15:23:29;;;;;;;12.90;4.82;;;333.00;1331.20;;;;;;6277585;22;20305;-77
2022/02/23 15:25:55;;;;;;;20.80;7.47;;;333.00;1305.60;;;;;;6250500;22;20372;-81
2022/02/23 15:28:25;;;;;;;14.68;5.55;;;332.90;1305.60;;;;;;6250605;22;20348;-78
2022/02/23 15:30:51;;;;;;;6.38;3.10;;;332.80;1305.60;;;;;;6250567;22;20381;-81
2022/02/23 15:33:18;;;;;;;10.43;3.35;;;308.10;1305.60;;;;;;6250348;22;20443;-82
2022/02/23 15:35:44;;;;;;;8.55;3.35;;;308.00;1638.40;;;;;;6277281;22;20377;-78
2022/02/23 15:38:11;;;;;;;9.48;3.03;;;307.90;1356.80;;;;;;6250523;22;20049;-82
2022/02/23 15:40:38;;;;;;;10.10;2.67;;;307.80;1331.20;;;;;;6250353;22;20377;-78
2022/02/23 15:43:04;;;;;;;6.25;1.80;;;307.70;1766.40;;;;;;6250302;22;20491;-78
2022/02/23 15:45:30;;;;;;;6.03;1.77;;;307.50;1331.20;;;;;;6277628;22;20375;-83
2022/02/23 15:48:00;;;;;;;7.82;1.92;;;307.40;1382.40;;;;;;6250255;22;20294;-79
2022/02/23 15:50:31;;;;;;;11.40;4.85;;;307.30;1382.40;;;;;;6277532;22;20346;-79
2022/02/23 15:52:57;;;;;;;11.57;3.50;;;307.30;1408.00;;;;;;6250630;22;20412;-86
2022/02/23 15:55:23;;;;;;;7.38;2.75;;;307.30;1356.80;;;;;;6250478;22;20436;-78
2022/02/23 15:57:50;;;;;;;10.90;3.40;;;307.20;1356.80;;;;;;6277454;22;20286;-83
2022/02/23 16:00:16;;;;;;;10.02;3.80;;;282.40;1356.80;;;;;;6277594;22;20372;-86
2022/02/23 16:02:44;;;;;;;10.55;3.50;;;282.30;1356.80;;;;;;6250928;22;20312;-83
2022/02/23 16:05:10;;;;;;;12.85;4.60;;;282.30;1356.80;;;;;;6251840;22;20397;-83
2022/02/23 16:07:36;;;;;;;22.17;9.63;;;282.20;1382.40;;;;;;6250500;22;20426;-83
2022/02/23 16:10:03;;;;;;;24.73;9.73;;;282.00;1382.40;;;;;;6250803;22;20417;-82
2022/02/23 16:12:29;;;;;;;26.27;9.25;;;282.00;1382.40;;;;;;6250292;22;20002;-87
2022/02/23 16:14:55;;;;;;;21.15;12.10;;;281.90;1408.00;;;;;;6250810;22;20004;-86
2022/02/23 16:17:22;;;;;;;12.70;7.93;;;281.80;1382.40;;;;;;6277801;22;20427;-86
2022/02/23 16:19:48;;;;;;;17.48;7.32;;;281.70;1408.00;;;;;;6277410;22;20321;-84
2022/02/23 16:22:16;;;;;;;20.25;4.70;;;281.60;1408.00;;;;;;6250830;22;20439;-86
2022/02/23 16:24:42;;;;;;;26.80;12.95;;;256.90;1433.60;;;;;;6250587;22;20417;-83
2022/02/23 16:27:09;;;;;;;97.68;42.10;;;256.90;1408.00;;;;;;6278033;22;20359;-84
2022/02/23 16:29:42;;;;;;;108.93;45.40;;;256.90;1433.60;;;;;;6250772;22;20440;-84
2022/02/23 16:32:09;;;;;;;393.25;168.32;;;256.70;1459.20;;;;;;6250734;22;20433;-84
2022/02/23 16:34:35;;;;;;;31.10;16.70;;;256.70;1484.80;;;;;;6250236;22;20448;-86
2022/02/23 16:37:02;;;;;;;35.45;21.95;;;;;;;;;;6250279;22;20317;-84
2022/02/23 16:39:28;;;;;;;23.88;11.57;;;256.60;1459.20;;;;;;6250419;22;20375;-86
2022/02/23 16:41:55;;;;;;;25.08;8.38;;;;;;;;;;6250555;22;20298;-84
2022/02/23 16:44:21;;;;;;;9.63;4.13;;;;;;;;;;6250368;22;20374;-84
2022/02/23 16:46:47;;;;;;;11.18;4.10;;;;;;;;;;6250459;22;20359;-84
2022/02/23 16:49:14;;;;;;;11.85;3.90;;;;;;;;;;6277567;22;19996;-86
2022/02/23 16:51:40;;;;;;;13.32;5.22;;;;;;;;;;6250305;22;20320;-85
2022/02/23 16:54:07;;;;;;;11.00;4.75;;;;;;;;;;6250373;22;20427;-85
2022/02/23 16:56:35;;;;;;;10.45;4.25;;;;;;;;;;6250699;22;20003;-88
2022/02/23 16:59:01;;;;;;;13.23;4.97;;;;;;;;;;6250759;22;20290;-90
2022/02/23 17:01:28;;;;;;;10.73;5.10;;;;;;;;;;6250952;22;20069;-89
2022/02/23 17:03:55;;;;;;;18.02;7.57;;;;;;;;;;6250720;22;20385;-90
2022/02/23 17:06:21;;;;;;;36.80;18.65;;;;;;;;;;6250802;22;20367;-91
2022/02/23 17:08:48;;;;;;;23.30;11.77;;;;;;;;;;6250724;22;20358;-88
2022/02/23 17:11:14;;;;;;;18.33;8.07;;;;;;;;;;6251061;22;20317;-89
2022/02/23 17:13:41;;;;;;;15.25;8.95;;;;;;;;;;6251193;22;20363;-89
2022/02/23 17:16:07;;;;;;;17.85;8.38;;;;;;;;;;6251349;22;20296;-90
2022/02/23 17:18:34;;;;;;;17.35;6.88;;;;;;;;;;6251284;22;20313;-89
2022/02/23 17:21:00;;;;;;;14.77;7.47;;;;;;;;;;6250725;22;20490;-89
2022/02/23 17:23:28;;;;;;;16.90;9.07;;;;;;;;;;6250666;22;20306;-89
2022/02/23 17:25:55;;;;;;;16.42;8.52;;;;;;;;;;6250690;22;20478;-87
2022/02/23 17:28:23;;;;;;;17.80;9.40;;;;;;;;;;6252008;22;20413;-91
2022/02/23 17:31:04;;;;;;;22.92;12.05;;;;;;;;;;6252747;22;20328;-90
2022/02/23 17:33:37;;;;;;;21.30;11.27;;;;;;;;;;6251848;22;20308;-90
2022/02/23 17:36:19;;;;;;;17.80;8.68;;;;;;;;;;6245369;22;20062;-89
2022/02/23 17:38:48;;;;;;;24.30;13.02;;;;;;;;;;6276920;22;20069;-89
2022/02/23 17:41:14;;;;;;;19.02;9.40;;;;;;;;;;6277549;22;20301;-88
2022/02/23 17:43:41;;;;;;;22.20;11.85;;;;;;;;;;6277957;22;20399;-88
2022/02/23 17:46:07;;;;;;;46.05;24.10;;;;;;;;;;6278482;22;20285;-87
2022/02/23 17:48:34;;;;;;;71.70;37.22;;;;;;;;;;6277863;22;20373;-88
2022/02/23 17:51:00;;;;;;;43.60;23.48;;;;;;;;;;6277733;22;20352;-87
2022/02/23 17:53:27;;;;;;;28.88;13.00;;;;;;;;;;6277768;22;20025;-90
2022/02/23 17:55:54;;;;;;;35.25;19.05;;;;;;;;;;6284441;22;20293;-89
2022/02/23 17:58:20;;;;;;;32.95;16.85;;;;;;;;;;6283376;22;20453;-91
2022/02/23 18:00:48;;;;;;;32.65;19.85;;;;;;;;;;6283034;22;20007;-88
2022/02/23 18:03:15;;;;;;;45.10;22.80;;;230.70;2099.20;;;;;;6283286;22;20309;-90
2022/02/23 18:05:42;;;;;;;37.05;20.52;;;;;;;;;;6282745;22;20316;-90
2022/02/23 18:08:08;;;;;;;39.45;22.48;;;;;;;;;;6282631;22;20408;-90
2022/02/23 18:10:34;;;;;;;320.35;251.55;;;;;;;;;;6283648;22;20385;-91
2022/02/23 18:13:01;;;;;;;271.52;232.75;;;;;;;;;;6282854;22;20293;-91
2022/02/23 18:15:28;;;;;;;33.42;23.08;;;;;;;;;;6283157;22;20373;-92
2022/02/23 18:17:56;;;;;;;21.75;10.43;;;;;;;;;;6283134;22;20324;-89
2022/02/23 18:20:22;;;;;;;25.42;11.75;;;;;;;;;;6282348;22;20428;-90
2022/02/23 18:22:48;;;;;;;24.45;11.00;;;;;;;;;;6282796;22;20501;-89
2022/02/23 18:25:15;;;;;;;18.33;9.48;;;;;;;;;;6282497;22;20006;-90
2022/02/23 18:27:41;;;;;;;23.38;10.02;;;;;;;;;;6282804;22;20315;-89
2022/02/23 18:30:08;;;;;;;24.40;8.98;;;;;;;;;;6282752;22;20374;-91
2022/02/23 18:32:35;;;;;;;19.17;9.40;;;;;;;;;;6282654;22;20387;-89
2022/02/23 18:35:01;;;;;;;20.17;10.63;;;;;;;;;;6282596;22;20289;-90
2022/02/23 18:37:28;;;;;;;50.42;23.77;;;205.70;1664.00;;;;;;6309125;22;20423;-87